METAR Data
IDs: Format: Raw Decoded Include TAF

Data at: 1844 UTC 16 Oct 2021

KCDS 161753Z AUTO VRB03KT 10SM CLR 19/M02 A3043 RMK AO2 SLP296 60000 T01941017 10194 20050 58007
KCDS 161653Z AUTO 23007KT 10SM CLR 18/M01 A3045 RMK AO2 RAB06E15 SLP303 P0000 T01831006
KCDS 161553Z AUTO 25005KT 10SM CLR 16/01 A3045 RMK AO2 SLP304 T01610006
KCDS 161453Z AUTO 31004KT 10SM CLR 11/02 A3045 RMK AO2 SLP308 60000 T01110017 53013
KCDS 161353Z AUTO 33004KT 10SM CLR 07/01 A3044 RMK AO2 RAE1256 SLP302 P0000 T00720011
KCDS 161253Z AUTO 33003KT 10SM -RA CLR 06/M01 A3042 RMK AO2 RAE1157B46 SLP297 P0000 T00561006
KCDS 161153Z AUTO 33004KT 10SM -RA CLR 06/00 A3041 RMK AO2 RAB1057E06B43 SLP292 P0000 60000 T00610000 10094 20050 51011
KCDS 161053Z AUTO 33005KT 10SM CLR 06/00 A3040 RMK AO2 SLP287 T00610000
KCDS 160953Z AUTO 34004KT 10SM CLR 06/00 A3039 RMK AO2 SLP282 T00610000
KCDS 160853Z AUTO 34004KT 10SM CLR 07/01 A3038 RMK AO2 RAB03E11 SLP277 P0000 60000 T00720006 51004
KCDS 160753Z AUTO 34003KT 10SM CLR 09/01 A3037 RMK AO2 SLP274 T00890006
KCDS 160653Z AUTO 34003KT 10SM CLR 08/01 A3037 RMK AO2 SLP275 T00830011
KCDS 160553Z AUTO 33004KT 10SM CLR 09/01 A3036 RMK AO2 SLP273 T00890011 10183 20083 402060083 51012
KCDS 160453Z AUTO 33003KT 10SM CLR 11/01 A3036 RMK AO2 SLP271 T01060006
KCDS 160353Z AUTO 35003KT 10SM CLR 12/01 A3034 RMK AO2 SLP265 T01220006
KCDS 160253Z AUTO 00000KT 10SM CLR 10/02 A3033 RMK AO2 SLP264 T01000017 51020
KCDS 160153Z AUTO 03005KT 10SM CLR 14/00 A3031 RMK AO2 SLP255 T01440000
KCDS 160053Z AUTO 02007KT 10SM CLR 16/00 A3029 RMK AO2 SLP249 T01560000
KCDS 152353Z AUTO 02010KT 10SM CLR 18/00 A3026 RMK AO2 SLP238 60000 T01830000 10206 20178 53011
KCDS 152253Z AUTO 36014G19KT 10SM CLR 19/00 A3025 RMK AO2 SLP233 T01940000
KCDS 152153Z AUTO 01016G24KT 10SM CLR 20/00 A3024 RMK AO2 RAB09E34 SLP228 P0000 T02000000
KCDS 152053Z AUTO 03012G22KT 10SM CLR 20/01 A3023 RMK AO2 PK WND 04026/2007 RAB30E33 SLP223 P0000 60000 T02000011 55002
KCDS 151953Z AUTO 01014G23KT 10SM CLR 19/01 A3022 RMK AO2 PK WND 34028/1854 SLP222 T01940011
KCDS 151853Z AUTO 35013G24KT 10SM CLR 19/02 A3023 RMK AO2 PK WND 02028/1823 SLP223 T01890017
KCDS 151753Z AUTO 01018G24KT 10SM CLR 18/02 A3023 RMK AO2 PK WND 01028/1704 RAE1658 SLP227 P0000 60000 T01780017 10183 20089 50009
KCDS 151653Z AUTO 02019KT 10SM -RA CLR 17/02 A3024 RMK AO2 RAB49 SLP227 P0000 T01670017
KCDS 151553Z AUTO 02018G26KT 10SM CLR 14/02 A3023 RMK AO2 PK WND 01031/1508 RAB00E10 SLP225 P0000 T01440017
KCDS 151453Z AUTO 01020G30KT 10SM CLR 13/01 A3020 RMK AO2 PK WND 01030/1451 RAB01E28 SLP216 P0000 60000 T01330011 53038
KCDS 151353Z AUTO 36011KT 10SM CLR 11/02 A3016 RMK AO2 SLP203 T01060017
KCDS 151253Z AUTO 35011KT 10SM CLR 09/02 A3012 RMK AO2 SLP188 T00890022
KCDS 151153Z AUTO 35013KT 10SM FEW018 09/03 A3009 RMK AO2 SLP172 60000 T00940028 10133 20094 53030
KCDS 151123Z AUTO 35012KT 10SM OVC016 10/04 A3006 RMK AO2 T01000039
KCDS 151053Z AUTO 35013KT 10SM BKN012 11/04 A3003 RMK AO2 SLP151 T01060039
KCDS 151049Z AUTO 35013KT 10SM BKN012 10/04 A3003 RMK AO2
KCDS 150953Z AUTO 36015KT 10SM CLR 11/04 A2999 RMK AO2 SLP137 T01060039
KCDS 150853Z AUTO 35015G22KT 10SM CLR 12/06 A2996 RMK AO2 SLP128 60000 T01170056 53013
KCDS 150753Z AUTO 35012KT 10SM CLR 12/06 A2995 RMK AO2 SLP124 T01220061
KCDS 150653Z AUTO 35011KT 10SM CLR 13/06 A2993 RMK AO2 RAB29E38 SLP116 P0000 T01330056